Time;durP1;ratioP1;P1;durP2;ratioP2;P2;SDS_P1;SDS_P2;PMS_P1;PMS_P2;Temp;Humidity;BMP_temperature;BMP_pressure;BME280_temperature;BME280_humidity;BME280_pressure;Samples;Min_cycle;Max_cycle;Signal;HPM_P1;HPM_P2
2021/11/29 00:01:54;;;;;;;4.45;4.05;;;;;;;;;;5093800;28;20632;-60
2021/11/29 00:04:22;;;;;;;4.38;3.80;;;;;;;;;;5093595;28;20652;-60
2021/11/29 00:06:49;;;;;;;5.25;3.70;;;;;;;;;;5093361;28;20231;-60
2021/11/29 00:09:17;;;;;;;5.05;3.50;;;;;;;;;;5093609;28;20303;-59
2021/11/29 00:11:45;;;;;;;4.53;4.00;;;;;;;;;;5093176;28;20295;-59
2021/11/29 00:14:13;;;;;;;4.75;4.18;;;;;;;;;;5093066;28;20307;-59
2021/11/29 00:16:40;;;;;;;4.80;4.40;;;;;;;;;;5094480;28;20283;-59
2021/11/29 00:19:08;;;;;;;5.22;3.95;;;;;;;;;;5100646;28;20239;-59
2021/11/29 00:21:36;;;;;;;8.32;4.03;;;;;;;;;;5093037;28;20235;-58
2021/11/29 00:24:04;;;;;;;4.95;4.13;;;;;;;;;;5095225;28;20224;-59
2021/11/29 00:26:31;;;;;;;4.10;3.78;;;;;;;;;;5097713;28;20229;-59
2021/11/29 00:29:00;;;;;;;4.78;4.18;;;;;;;;;;5097594;28;20299;-58
2021/11/29 00:31:28;;;;;;;7.05;4.00;;;;;;;;;;5098478;28;20247;-59
2021/11/29 00:33:56;;;;;;;5.65;4.05;;;;;;;;;;5102375;28;20302;-59
2021/11/29 00:36:23;;;;;;;4.15;3.70;;;;;;;;;;5097947;28;20302;-58
2021/11/29 00:38:50;;;;;;;4.78;4.28;;;;;;;;;;5097978;28;20284;-58
2021/11/29 00:41:18;;;;;;;5.28;4.03;;;;;;;;;;5097259;28;20290;-59
2021/11/29 00:43:45;;;;;;;4.88;4.28;;;;;;;;;;5097334;28;20266;-59
2021/11/29 00:46:14;;;;;;;5.30;4.82;;;;;;;;;;5097869;28;20287;-59
2021/11/29 00:48:41;;;;;;;4.45;3.88;;;;;;;;;;5097313;28;20291;-59
2021/11/29 00:51:09;;;;;;;6.30;4.90;;;;;;;;;;5097411;28;20292;-59
2021/11/29 00:53:36;;;;;;;4.22;3.83;;;;;;;;;;5096646;28;20319;-59
2021/11/29 00:56:04;;;;;;;6.28;4.75;;;;;;;;;;5097172;28;20637;-60
2021/11/29 00:58:31;;;;;;;6.75;4.60;;;;;;;;;;5096720;28;20299;-58
2021/11/29 01:00:59;;;;;;;4.90;4.40;;;;;;;;;;5096944;28;20303;-59
2021/11/29 01:03:27;;;;;;;8.00;5.20;;;;;;;;;;5096427;28;20248;-58
2021/11/29 01:05:55;;;;;;;5.78;4.47;;;;;;;;;;5099268;28;20239;-58
2021/11/29 01:08:22;;;;;;;5.30;4.32;;;;;;;;;;5100058;28;20262;-58
2021/11/29 01:10:50;;;;;;;4.88;4.38;;;;;;;;;;5099680;28;20232;-59
2021/11/29 01:13:17;;;;;;;5.78;3.80;;;;;;;;;;5098547;28;20252;-58
2021/11/29 01:15:45;;;;;;;4.95;4.43;;;;;;;;;;5096995;28;20300;-59
2021/11/29 01:18:13;;;;;;;6.95;4.30;;;;;;;;;;5096400;28;20220;-58
2021/11/29 01:20:43;;;;;;;4.95;4.13;;;;;;;;;;5096714;28;20288;-60
2021/11/29 01:23:11;;;;;;;6.50;4.07;;;;;;;;;;5096637;28;20382;-59
2021/11/29 01:25:38;;;;;;;5.03;4.00;;;;;;;;;;5097613;28;20296;-59
2021/11/29 01:28:06;;;;;;;4.28;3.60;;;;;;;;;;5097471;28;20283;-58
2021/11/29 01:30:33;;;;;;;4.40;3.38;;;;;;;;;;5096410;28;20243;-58
2021/11/29 01:33:01;;;;;;;3.78;3.35;;;;;;;;;;5096390;28;20251;-58
2021/11/29 01:35:28;;;;;;;3.90;3.50;;;;;;;;;;5095534;28;20307;-58
2021/11/29 01:37:57;;;;;;;5.72;3.97;;;;;;;;;;5096358;28;20358;-59
2021/11/29 01:40:26;;;;;;;5.28;3.97;;;;;;;;;;5096526;28;20299;-58
2021/11/29 01:43:02;;;;;;;4.38;3.97;;;;;;;;;;5096290;28;20730;-58
2021/11/29 01:45:30;;;;;;;8.25;4.00;;;;;;;;;;5096433;28;20295;-59
2021/11/29 01:47:58;;;;;;;4.15;3.50;;;;;;;;;;5096467;28;20303;-59
2021/11/29 01:50:27;;;;;;;5.53;3.53;;;;;;;;;;5096799;28;20286;-59
2021/11/29 01:52:55;;;;;;;5.70;4.97;;;;;;;;;;5096228;28;20312;-59
2021/11/29 01:55:23;;;;;;;4.05;3.75;;;;;;;;;;5096100;28;20216;-58
2021/11/29 01:57:51;;;;;;;7.47;4.28;;;;;;;;;;5096387;28;20291;-59
2021/11/29 02:00:21;;;;;;;5.20;3.95;;;;;;;;;;5096175;28;20235;-58
2021/11/29 02:02:48;;;;;;;10.10;3.65;;;;;;;;;;5095790;28;20311;-59
2021/11/29 02:05:16;;;;;;;4.47;4.05;;;;;;;;;;5096206;28;20283;-59
2021/11/29 02:07:44;;;;;;;4.40;3.80;;;;;;;;;;5096944;28;20243;-59
2021/11/29 02:10:12;;;;;;;6.32;4.10;;;;;;;;;;5099044;28;20283;-57
2021/11/29 02:12:41;;;;;;;4.47;3.97;;;;;;;;;;5100240;28;20303;-59
2021/11/29 02:15:09;;;;;;;6.53;3.90;;;;;;;;;;5096197;28;20778;-58
2021/11/29 02:17:36;;;;;;;4.53;3.47;;;;;;;;;;5097177;28;20294;-59
2021/11/29 02:20:05;;;;;;;5.30;3.97;;;;;;;;;;5098090;28;20315;-59
2021/11/29 02:22:34;;;;;;;8.00;5.20;;;;;;;;;;5097754;28;20264;-59
2021/11/29 02:25:01;;;;;;;4.75;4.25;;;;;;;;;;5098417;28;20284;-60
2021/11/29 02:27:28;;;;;;;5.18;4.68;;;;;;;;;;5095794;28;20287;-58
2021/11/29 02:29:57;;;;;;;5.13;4.50;;;;;;;;;;5095019;28;20200;-59
2021/11/29 02:32:24;;;;;;;4.22;3.83;;;;;;;;;;5095328;28;20345;-58
2021/11/29 02:34:52;;;;;;;5.55;4.45;;;;;;;;;;5094833;28;20246;-59
2021/11/29 02:37:19;;;;;;;5.78;4.78;;;;;;;;;;5094683;28;20239;-59
2021/11/29 02:39:48;;;;;;;6.07;3.97;;;;;;;;;;5094626;28;20242;-59
2021/11/29 02:42:16;;;;;;;5.05;4.43;;;;;;;;;;5094839;28;20310;-59
2021/11/29 02:44:43;;;;;;;5.68;4.43;;;;;;;;;;5094978;28;20288;-59
2021/11/29 02:47:11;;;;;;;6.20;4.75;;;;;;;;;;5094607;28;20291;-59
2021/11/29 02:49:38;;;;;;;7.40;4.47;;;;;;;;;;5097149;28;20212;-59
2021/11/29 02:52:07;;;;;;;4.20;3.80;;;;;;;;;;5097272;28;20279;-59
2021/11/29 02:54:35;;;;;;;4.55;4.10;;;;;;;;;;5095099;28;20327;-59
2021/11/29 02:57:06;;;;;;;5.80;4.38;;;;;;;;;;5097365;28;20299;-59
2021/11/29 02:59:34;;;;;;;3.70;2.80;;;;;;;;;;5103746;28;20216;-59
2021/11/29 03:02:02;;;;;;;3.30;3.10;;;;;;;;;;5097013;28;20252;-59
2021/11/29 03:04:30;;;;;;;5.88;3.78;;;;;;;;;;5094563;28;20299;-59
2021/11/29 03:06:58;;;;;;;5.93;3.20;;;;;;;;;;5098478;28;20236;-59
2021/11/29 03:09:25;;;;;;;5.03;3.65;;;;;;;;;;5097003;28;20608;-59
2021/11/29 03:11:53;;;;;;;3.88;3.08;;;;;;;;;;5094714;28;20262;-59
2021/11/29 03:14:22;;;;;;;4.38;3.53;;;;;;;;;;5094018;28;20308;-58
2021/11/29 03:16:50;;;;;;;4.50;3.45;;;;;;;;;;5093998;28;20292;-58
2021/11/29 03:19:17;;;;;;;7.50;3.30;;;;;;;;;;5094458;28;20299;-58
2021/11/29 03:21:44;;;;;;;4.28;3.78;;;;;;;;;;5093643;28;20291;-59
2021/11/29 03:24:12;;;;;;;4.82;3.72;;;;;;;;;;5094209;28;20271;-59
2021/11/29 03:26:40;;;;;;;4.13;3.45;;;;;;;;;;5093964;28;20290;-59
2021/11/29 03:29:09;;;;;;;4.13;3.72;;;;;;;;;;5098491;28;20294;-59
2021/11/29 03:31:39;;;;;;;4.03;3.70;;;;;;;;;;5097768;28;20683;-59
2021/11/29 03:34:07;;;;;;;5.30;3.80;;;;;;;;;;5101557;28;20238;-58
2021/11/29 03:36:36;;;;;;;6.03;4.05;;;;;;;;;;5101053;28;20232;-58
2021/11/29 03:39:05;;;;;;;5.75;4.82;;;;;;;;;;5094119;28;20247;-60
2021/11/29 03:41:32;;;;;;;4.63;4.22;;;;;;;;;;5093868;28;20288;-59
2021/11/29 03:44:00;;;;;;;4.80;4.30;;;;;;;;;;5094033;28;20282;-59
2021/11/29 03:46:27;;;;;;;4.38;3.78;;;;;;;;;;5093915;28;20598;-57
2021/11/29 03:48:56;;;;;;;4.90;4.20;;;;;;;;;;5093468;28;20246;-60
2021/11/29 03:51:24;;;;;;;7.05;4.80;;;;;;;;;;5093847;28;20250;-58
2021/11/29 03:53:52;;;;;;;6.30;4.30;;;;;;;;;;5093617;28;20318;-58
2021/11/29 03:56:19;;;;;;;5.40;4.07;;;;;;;;;;5093774;28;20252;-58
2021/11/29 03:58:47;;;;;;;4.38;3.97;;;;;;;;;;5092966;28;20211;-59
2021/11/29 04:01:14;;;;;;;5.65;4.32;;;;;;;;;;5093863;28;20255;-59
2021/11/29 04:03:41;;;;;;;4.55;4.18;;;;;;;;;;5093877;28;20259;-58
2021/11/29 04:08:59;;;;;;;8.25;5.03;;;;;;;;;;5112209;27;21005;-59
2021/11/29 04:11:27;;;;;;;5.18;4.38;;;;;;;;;;5111317;28;20234;-60
2021/11/29 04:13:54;;;;;;;4.93;4.45;;;;;;;;;;5091311;28;20236;-60
2021/11/29 04:16:22;;;;;;;4.43;4.03;;;;;;;;;;5091318;28;20707;-59
2021/11/29 04:18:49;;;;;;;5.22;4.72;;;;;;;;;;5090831;28;20740;-60
2021/11/29 04:21:17;;;;;;;4.45;4.05;;;;;;;;;;5092506;28;20269;-59
2021/11/29 04:23:47;;;;;;;6.03;4.53;;;;;;;;;;5090717;28;20315;-59
2021/11/29 04:26:17;;;;;;;6.25;4.65;;;;;;;;;;5090693;28;20211;-59
2021/11/29 04:28:45;;;;;;;6.03;4.93;;;;;;;;;;5091045;28;20691;-60
2021/11/29 04:31:13;;;;;;;7.63;5.00;;;;;;;;;;5095057;28;20258;-60
2021/11/29 04:33:40;;;;;;;5.05;4.15;;;;;;;;;;5095171;28;20244;-59
2021/11/29 04:36:08;;;;;;;5.20;4.60;;;;;;;;;;5090487;28;20299;-59
2021/11/29 04:38:35;;;;;;;5.28;4.47;;;;;;;;;;5090618;28;20716;-58
2021/11/29 04:41:03;;;;;;;5.43;4.90;;;;;;;;;;5090537;28;20255;-59
2021/11/29 04:43:32;;;;;;;6.05;5.45;;;;;;;;;;5090706;28;20263;-60
2021/11/29 04:45:59;;;;;;;6.03;5.45;;;;;;;;;;5090689;28;20204;-61
2021/11/29 04:48:27;;;;;;;10.82;5.50;;;;;;;;;;5090044;28;20248;-60
2021/11/29 04:50:54;;;;;;;5.75;4.80;;;;;;;;;;5090981;28;20291;-59
2021/11/29 04:53:22;;;;;;;7.15;5.28;;;;;;;;;;5090390;28;20312;-59
2021/11/29 04:55:49;;;;;;;6.78;5.68;;;;;;;;;;5089911;28;20692;-59
2021/11/29 04:58:17;;;;;;;6.13;5.50;;;;;;;;;;5089910;28;20687;-59
2021/11/29 05:00:51;;;;;;;7.43;5.88;;;;;;;;;;5090079;28;20239;-59
2021/11/29 05:03:18;;;;;;;7.05;6.30;;;;;;;;;;5089834;28;20301;-59
2021/11/29 05:05:46;;;;;;;6.50;5.20;;;;;;;;;;5089848;28;20303;-59
2021/11/29 05:08:14;;;;;;;9.82;6.25;;;;;;;;;;5089437;28;20252;-59
2021/11/29 05:10:41;;;;;;;7.90;6.35;;;;;;;;;;5089891;28;20228;-59
2021/11/29 05:13:12;;;;;;;9.05;6.82;;;;;;;;;;5089469;28;20256;-59
2021/11/29 05:15:40;;;;;;;10.00;6.13;;;;;;;;;;5089969;28;20585;-59
2021/11/29 05:18:10;;;;;;;6.70;6.10;;;;;;;;;;5089059;28;20204;-59
2021/11/29 05:20:37;;;;;;;7.25;6.55;;;;;;;;;;5076734;28;20304;-59
2021/11/29 05:23:05;;;;;;;9.13;6.43;;;;;;;;;;5080999;28;20267;-59
2021/11/29 05:25:32;;;;;;;7.78;6.18;;;;;;;;;;5078510;28;20225;-59
2021/11/29 05:28:00;;;;;;;10.02;6.40;;;;;;;;;;5076478;28;20787;-59
2021/11/29 05:30:28;;;;;;;7.07;6.38;;;;;;;;;;5076055;28;20676;-59
2021/11/29 05:32:57;;;;;;;7.40;6.70;;;;;;;;;;5076860;28;20217;-59
2021/11/29 05:35:26;;;;;;;7.93;6.80;;;;;;;;;;5077286;28;20209;-59
2021/11/29 05:37:54;;;;;;;11.35;6.75;;;;;;;;;;5076247;28;20232;-58
2021/11/29 05:40:22;;;;;;;8.00;7.18;;;;;;;;;;5075871;28;20738;-59
2021/11/29 05:42:49;;;;;;;8.52;7.35;;;;;;;;;;5076456;28;20227;-60
2021/11/29 05:45:17;;;;;;;8.95;8.05;;;;;;;;;;5076440;28;20274;-60
2021/11/29 05:47:44;;;;;;;8.93;7.97;;;;;;;;;;5076258;28;20295;-59
2021/11/29 05:50:14;;;;;;;10.35;7.10;;;;;;;;;;5075499;28;20243;-59
2021/11/29 05:52:45;;;;;;;9.88;7.70;;;;;;;;;;5075261;28;20221;-59
2021/11/29 05:55:14;;;;;;;9.10;7.38;;;;;;;;;;5075758;28;20275;-59
2021/11/29 05:57:42;;;;;;;8.43;7.20;;;;;;;;;;5075194;28;20279;-59
2021/11/29 06:00:11;;;;;;;9.45;8.05;;;;;;;;;;5076607;28;20269;-60
2021/11/29 06:02:40;;;;;;;8.55;7.70;;;;;;;;;;5078177;28;20308;-60
2021/11/29 06:05:08;;;;;;;10.82;9.07;;;;;;;;;;5083687;28;20202;-58
2021/11/29 06:07:35;;;;;;;8.93;8.00;;;;;;;;;;5082142;28;20248;-58
2021/11/29 06:10:04;;;;;;;11.60;8.55;;;;;;;;;;5081009;28;20607;-58
2021/11/29 06:12:32;;;;;;;9.43;8.43;;;;;;;;;;5083185;28;20631;-58
2021/11/29 06:14:59;;;;;;;10.95;8.30;;;;;;;;;;5077194;28;20209;-58
2021/11/29 06:17:27;;;;;;;13.63;8.90;;;;;;;;;;5077553;28;20237;-58
2021/11/29 06:19:54;;;;;;;9.93;8.65;;;;;;;;;;5077015;28;20221;-58
2021/11/29 06:22:22;;;;;;;10.05;8.70;;;;;;;;;;5077046;28;20245;-58
2021/11/29 06:24:49;;;;;;;10.82;9.30;;;;;;;;;;5076722;28;20201;-58
2021/11/29 06:27:18;;;;;;;11.90;9.98;;;;;;;;;;5076238;28;20239;-58
2021/11/29 06:29:45;;;;;;;10.10;9.02;;;;;;;;;;5086887;28;20677;-58
2021/11/29 06:32:13;;;;;;;9.80;8.80;;;;;;;;;;5079841;28;20288;-58
2021/11/29 06:34:40;;;;;;;14.35;10.45;;;;;;;;;;5083765;28;20214;-58
2021/11/29 06:37:10;;;;;;;11.23;8.52;;;;;;;;;;5086194;28;20617;-58
2021/11/29 06:39:38;;;;;;;9.05;7.97;;;;;;;;;;5086504;28;20227;-58
2021/11/29 06:42:05;;;;;;;11.80;9.48;;;;;;;;;;5083969;28;20248;-57
2021/11/29 06:44:34;;;;;;;9.90;8.80;;;;;;;;;;5082481;28;20225;-57
2021/11/29 06:47:02;;;;;;;10.20;9.15;;;;;;;;;;5082381;28;20201;-59
2021/11/29 06:49:30;;;;;;;11.98;9.43;;;;;;;;;;5085600;28;20316;-58
2021/11/29 06:51:58;;;;;;;14.77;10.18;;;;;;;;;;5082602;28;20258;-58
2021/11/29 06:54:25;;;;;;;12.20;10.45;;;;;;;;;;5082367;28;20208;-57
2021/11/29 06:56:54;;;;;;;10.38;9.27;;;;;;;;;;5077355;28;20197;-57
2021/11/29 06:59:25;;;;;;;14.40;9.90;;;;;;;;;;5078103;28;20201;-60
2021/11/29 07:01:54;;;;;;;12.90;10.25;;;;;;;;;;5076968;28;20263;-59
2021/11/29 07:04:21;;;;;;;10.88;9.68;;;;;;;;;;5078153;28;20205;-58
2021/11/29 07:06:48;;;;;;;12.43;9.48;;;;;;;;;;5085239;28;20262;-60
2021/11/29 07:09:16;;;;;;;11.35;9.65;;;;;;;;;;5078708;28;20237;-58
2021/11/29 07:11:44;;;;;;;13.05;10.23;;;;;;;;;;5076652;28;20292;-58
2021/11/29 07:14:12;;;;;;;11.70;9.88;;;;;;;;;;5076423;28;20232;-58
2021/11/29 07:16:46;;;;;;;13.43;10.63;;;;;;;;;;5077384;28;20236;-59
2021/11/29 07:19:15;;;;;;;11.00;9.90;;;;;;;;;;5079283;28;20242;-57
2021/11/29 07:21:42;;;;;;;14.90;9.98;;;;;;;;;;5079254;28;20201;-60
2021/11/29 07:24:10;;;;;;;17.00;10.95;;;;;;;;;;5085050;28;20204;-59
2021/11/29 07:26:38;;;;;;;16.70;11.43;;;;;;;;;;5084888;28;20201;-59
2021/11/29 07:29:06;;;;;;;13.38;10.55;;;;;;;;;;5079294;28;20260;-58
2021/11/29 07:31:34;;;;;;;15.05;11.00;;;;;;;;;;5077471;28;20660;-59
2021/11/29 07:34:01;;;;;;;16.15;10.73;;;;;;;;;;5077668;28;20207;-58
2021/11/29 07:36:30;;;;;;;18.73;11.50;;;;;;;;;;5078521;28;20288;-59
2021/11/29 07:38:58;;;;;;;14.10;11.45;;;;;;;;;;5077098;28;20232;-57
2021/11/29 07:41:25;;;;;;;13.65;10.68;;;;;;;;;;5074913;28;20288;-59
2021/11/29 07:43:53;;;;;;;14.95;11.27;;;;;;;;;;5077245;28;20260;-59
2021/11/29 07:46:20;;;;;;;16.67;11.40;;;;;;;;;;5081074;28;20240;-57
2021/11/29 07:48:47;;;;;;;17.48;11.00;;;;;;;;;;5077273;28;20244;-58
2021/11/29 07:51:15;;;;;;;19.27;12.60;;;;;;;;;;5078792;28;20338;-58
2021/11/29 07:53:44;;;;;;;14.07;11.52;;;;;;;;;;5080388;28;20282;-59
2021/11/29 07:56:11;;;;;;;15.48;11.32;;;;;;;;;;5079879;28;20205;-58
2021/11/29 07:58:39;;;;;;;15.93;11.30;;;;;;;;;;5075108;28;20201;-59
2021/11/29 08:01:06;;;;;;;19.38;12.85;;;;;;;;;;5083528;28;20225;-59
2021/11/29 08:03:33;;;;;;;15.90;11.77;;;;;;;;;;5076331;28;20263;-60
2021/11/29 08:06:01;;;;;;;17.98;12.20;;;;;;;;;;5074236;28;20300;-59
2021/11/29 08:08:28;;;;;;;19.17;12.38;;;;;;;;;;5073732;28;20260;-59
2021/11/29 08:10:57;;;;;;;17.65;11.80;;;;;;;;;;5074248;28;20233;-60
2021/11/29 08:13:24;;;;;;;16.40;13.10;;;;;;;;;;5073762;28;20308;-59
2021/11/29 08:15:52;;;;;;;20.98;12.93;;;;;;;;;;5074381;28;20255;-59
2021/11/29 08:18:19;;;;;;;14.55;11.75;;;;;;;;;;5074006;28;20208;-59
2021/11/29 08:20:47;;;;;;;13.98;10.77;;;;;;;;;;5074022;28;20228;-58
2021/11/29 08:23:15;;;;;;;18.33;12.55;;;;;;;;;;5073962;28;20648;-58
2021/11/29 08:25:42;;;;;;;17.02;12.68;;;;;;;;;;5073761;28;20687;-57
2021/11/29 08:28:12;;;;;;;18.48;12.25;;;;;;;;;;5073353;28;20266;-59
2021/11/29 08:30:40;;;;;;;16.70;12.88;;;;;;;;;;5073619;28;20270;-59
2021/11/29 08:33:07;;;;;;;22.67;15.20;;;;;;;;;;5073620;28;20259;-59
2021/11/29 08:35:36;;;;;;;16.58;12.18;;;;;;;;;;5073766;28;20292;-58
2021/11/29 08:38:04;;;;;;;19.45;12.88;;;;;;;;;;5073361;28;20204;-58
2021/11/29 08:40:34;;;;;;;19.88;13.32;;;;;;;;;;5073212;28;20240;-59
2021/11/29 08:43:02;;;;;;;17.67;12.95;;;;;;;;;;5074207;28;20228;-59
2021/11/29 08:45:33;;;;;;;18.50;12.52;;;;;;;;;;5073440;28;20252;-58
2021/11/29 08:48:01;;;;;;;21.50;13.68;;;;;;;;;;5073531;28;20219;-59
2021/11/29 08:50:29;;;;;;;21.98;14.00;;;;;;;;;;5074276;28;20205;-60
2021/11/29 08:52:56;;;;;;;19.85;13.63;;;;;;;;;;5073403;28;20256;-59
2021/11/29 08:55:24;;;;;;;21.70;13.85;;;;;;;;;;5077182;28;20629;-60
2021/11/29 08:57:51;;;;;;;16.63;13.10;;;;;;;;;;5077568;28;20266;-58
2021/11/29 09:00:19;;;;;;;15.70;11.73;;;;;;;;;;5077064;28;20225;-59
2021/11/29 09:02:49;;;;;;;21.23;12.73;;;;;;;;;;5076869;28;20241;-59
2021/11/29 09:05:18;;;;;;;14.88;10.73;;;;;;;;;;5076509;28;20299;-59
2021/11/29 09:07:45;;;;;;;18.02;11.55;;;;;;;;;;5076927;28;20216;-59
2021/11/29 09:10:13;;;;;;;15.93;11.60;;;;;;;;;;5077439;28;20232;-58
2021/11/29 09:12:41;;;;;;;13.65;11.35;;;;;;;;;;5077179;28;20307;-60
2021/11/29 09:15:11;;;;;;;21.35;13.05;;;;;;;;;;5077607;28;20240;-61
2021/11/29 09:17:39;;;;;;;19.52;12.32;;;;;;;;;;5077470;28;20291;-58
2021/11/29 09:20:09;;;;;;;18.48;11.57;;;;;;;;;;5076787;28;20201;-59
2021/11/29 09:22:37;;;;;;;17.25;12.30;;;;;;;;;;5076626;28;20373;-60
2021/11/29 09:25:05;;;;;;;15.57;11.23;;;;;;;;;;5076942;28;20197;-61
2021/11/29 09:27:33;;;;;;;19.85;13.75;;;;;;;;;;5077673;28;20273;-60
2021/11/29 09:30:00;;;;;;;20.33;14.13;;;;;;;;;;5077963;28;20251;-60
2021/11/29 09:32:28;;;;;;;19.92;13.38;;;;;;;;;;5076882;28;20708;-58
2021/11/29 09:34:56;;;;;;;20.85;14.30;;;;;;;;;;5076882;28;20231;-60
2021/11/29 09:37:24;;;;;;;20.40;13.50;;;;;;;;;;5076471;28;20707;-58
2021/11/29 09:39:52;;;;;;;21.98;13.95;;;;;;;;;;5076213;28;20240;-60
2021/11/29 09:42:19;;;;;;;19.05;13.57;;;;;;;;;;5076215;28;20241;-60
2021/11/29 09:44:52;;;;;;;19.45;13.55;;;;;;;;;;5075757;28;20292;-59
2021/11/29 09:47:20;;;;;;;20.45;13.07;;;;;;;;;;5076363;28;20181;-59
2021/11/29 09:49:47;;;;;;;26.88;15.35;;;;;;;;;;5076071;28;20252;-60
2021/11/29 09:52:15;;;;;;;19.23;12.05;;;;;;;;;;5077088;28;20634;-59
2021/11/29 09:54:44;;;;;;;21.85;13.98;;;;;;;;;;5075977;28;20212;-59
2021/11/29 09:57:11;;;;;;;18.52;12.60;;;;;;;;;;5076027;28;20680;-60
2021/11/29 09:59:39;;;;;;;18.98;11.85;;;;;;;;;;5076528;28;20229;-60
2021/11/29 10:02:12;;;;;;;19.67;12.40;;;;;;;;;;5076589;28;20311;-60
2021/11/29 10:04:39;;;;;;;17.95;12.05;;;;;;;;;;5076506;28;20189;-60
2021/11/29 10:07:07;;;;;;;20.05;12.63;;;;;;;;;;5075564;28;20251;-58
2021/11/29 10:09:36;;;;;;;17.58;11.20;;;;;;;;;;5076557;28;20221;-59
2021/11/29 10:12:23;;;;;;;19.50;13.40;;;;;;;;;;5076422;28;20217;-59
2021/11/29 10:15:06;;;;;;;18.88;12.30;;;;;;;;;;5077187;28;20227;-59
2021/11/29 10:17:34;;;;;;;19.25;12.70;;;;;;;;;;5076538;28;20229;-59
2021/11/29 10:20:02;;;;;;;17.75;11.90;;;;;;;;;;5076641;28;20684;-59
2021/11/29 10:22:29;;;;;;;22.92;13.10;;;;;;;;;;5068660;22;20250;-55
2021/11/29 10:24:57;;;;;;;16.88;12.18;;;;;;;;;;5034636;28;20237;-55
2021/11/29 10:27:38;;;;;;;19.80;12.55;;;;;;;;;;5034101;28;20682;-55
2021/11/29 10:30:07;;;;;;;17.92;12.38;;;;;;;;;;5034601;28;20269;-57
2021/11/29 10:32:39;;;;;;;17.88;12.18;;;;;;;;;;5034225;28;20280;-55
2021/11/29 10:35:08;;;;;;;18.48;12.55;;;;;;;;;;5034682;28;20293;-55
2021/11/29 10:37:36;;;;;;;16.38;11.52;;;;;;;;;;5034734;28;20291;-55
2021/11/29 10:40:07;;;;;;;18.30;12.15;;;;;;;;;;5034458;28;20194;-56
2021/11/29 10:42:34;;;;;;;15.82;12.05;;;;;;;;;;5035064;28;20230;-55
2021/11/29 10:45:02;;;;;;;19.90;12.45;;;;;;;;;;5034089;28;20297;-56
2021/11/29 10:47:32;;;;;;;15.52;11.68;;;;;;;;;;5033944;28;20570;-56
2021/11/29 10:50:04;;;;;;;16.05;11.35;;;;;;;;;;5033947;28;20226;-55
2021/11/29 10:52:33;;;;;;;16.48;12.10;;;;;;;;;;5034200;28;20280;-57
2021/11/29 10:55:01;;;;;;;17.88;11.77;;;;;;;;;;5033742;28;20202;-55
2021/11/29 10:57:29;;;;;;;16.23;11.60;;;;;;;;;;5033726;28;20301;-55
2021/11/29 10:59:57;;;;;;;15.15;11.40;;;;;;;;;;5033950;28;20323;-55
2021/11/29 11:02:26;;;;;;;16.90;11.63;;;;;;;;;;5034764;28;20226;-56
2021/11/29 11:05:05;;;;;;;15.07;10.70;;;;;;;;;;5033717;28;20234;-56
2021/11/29 11:07:33;;;;;;;17.08;12.52;;;;;;;;;;5034419;28;20194;-56
2021/11/29 11:10:02;;;;;;;16.52;11.77;;;;;;;;;;5033450;28;20218;-56
2021/11/29 11:12:31;;;;;;;17.48;11.98;;;;;;;;;;5034233;28;20229;-56
2021/11/29 11:15:02;;;;;;;20.45;13.13;;;;;;;;;;5033454;28;20230;-56
2021/11/29 11:17:30;;;;;;;17.27;12.20;;;;;;;;;;5032980;28;20191;-56
2021/11/29 11:19:58;;;;;;;15.18;11.18;;;;;;;;;;5033232;28;20293;-56
2021/11/29 11:22:28;;;;;;;16.83;11.80;;;;;;;;;;5033380;28;20225;-56
2021/11/29 11:24:57;;;;;;;16.50;10.48;;;;;;;;;;5033473;28;20257;-56
2021/11/29 11:27:25;;;;;;;16.17;10.85;;;;;;;;;;5033767;28;20237;-54
2021/11/29 11:29:54;;;;;;;16.60;11.45;;;;;;;;;;5033139;28;20318;-54
2021/11/29 11:32:31;;;;;;;16.20;10.98;;;;;;;;;;5032664;28;20262;-54
2021/11/29 11:35:00;;;;;;;14.23;10.98;;;;;;;;;;5033032;28;20209;-54
2021/11/29 11:37:30;;;;;;;15.70;10.10;;;;;;;;;;5032768;28;20210;-55
2021/11/29 11:39:58;;;;;;;18.70;11.27;;;;;;;;;;5034144;28;20581;-55
2021/11/29 11:42:26;;;;;;;16.27;10.20;;;;;;;;;;5033172;28;20568;-56
2021/11/29 11:44:54;;;;;;;11.88;8.90;;;;;;;;;;5033039;28;20229;-55
2021/11/29 11:47:22;;;;;;;15.63;10.45;;;;;;;;;;5032552;28;20648;-56
2021/11/29 11:49:50;;;;;;;13.73;9.93;;;;;;;;;;5032944;28;20258;-56
2021/11/29 11:52:18;;;;;;;15.20;10.75;;;;;;;;;;5033156;28;20270;-56
2021/11/29 11:54:48;;;;;;;11.93;8.70;;;;;;;;;;5032825;28;20202;-55
2021/11/29 11:57:16;;;;;;;14.38;10.57;;;;;;;;;;5032848;28;20728;-55
2021/11/29 11:59:51;;;;;;;17.20;9.32;;;;;;;;;;5032691;28;20293;-55
2021/11/29 12:02:21;;;;;;;14.55;10.63;;;;;;;;;;5032714;28;20705;-55
2021/11/29 12:05:03;;;;;;;17.17;11.20;;;;;;;;;;5032640;28;20202;-55
2021/11/29 12:07:33;;;;;;;12.73;8.48;;;;;;;;;;5031986;28;20741;-55
2021/11/29 12:10:26;;;;;;;14.85;8.40;;;;;;;;;;5033388;28;20217;-54
2021/11/29 12:12:58;;;;;;;11.07;7.82;;;;;;;;;;5032402;28;20316;-55
2021/11/29 12:15:37;;;;;;;13.88;9.07;;;;;;;;;;5032961;28;20294;-55
2021/11/29 12:18:04;;;;;;;13.23;9.07;;;;;;;;;;5032446;28;20612;-55
2021/11/29 12:20:32;;;;;;;12.68;9.35;;;;;;;;;;5032970;28;20233;-56
2021/11/29 12:22:59;;;;;;;11.95;8.68;;;;;;;;;;5032879;28;20248;-56
2021/11/29 12:25:28;;;;;;;14.25;9.63;;;;;;;;;;5032741;28;20233;-56
2021/11/29 12:27:56;;;;;;;14.48;9.80;;;;;;;;;;5032918;28;20245;-56
2021/11/29 12:30:39;;;;;;;14.95;10.35;;;;;;;;;;5035687;28;20308;-55
2021/11/29 12:33:07;;;;;;;16.05;10.57;;;;;;;;;;5036759;28;20241;-56
2021/11/29 12:35:36;;;;;;;12.48;9.15;;;;;;;;;;5036911;28;20285;-56
2021/11/29 12:38:05;;;;;;;12.13;9.63;;;;;;;;;;5036850;28;20309;-55
2021/11/29 12:40:44;;;;;;;15.60;10.93;;;;;;;;;;5036648;28;20201;-56
2021/11/29 12:43:12;;;;;;;11.65;9.90;;;;;;;;;;5036593;28;20285;-55
2021/11/29 12:45:39;;;;;;;16.25;9.98;;;;;;;;;;5036778;28;20634;-56
2021/11/29 12:48:17;;;;;;;14.00;9.80;;;;;;;;;;5036154;28;20249;-55
2021/11/29 12:50:51;;;;;;;10.85;8.50;;;;;;;;;;5036328;28;20615;-56
2021/11/29 12:53:20;;;;;;;11.95;9.60;;;;;;;;;;5036700;28;20285;-55
2021/11/29 12:55:50;;;;;;;12.45;7.90;;;;;;;;;;5036814;28;20589;-56
2021/11/29 12:58:19;;;;;;;10.95;7.15;;;;;;;;;;5036211;28;20210;-55
2021/11/29 13:00:47;;;;;;;10.43;7.55;;;;;;;;;;5036524;28;20233;-54
2021/11/29 13:03:15;;;;;;;9.60;7.43;;;;;;;;;;5035707;28;20198;-55
2021/11/29 13:05:44;;;;;;;10.15;7.13;;;;;;;;;;5035955;28;20256;-55
2021/11/29 13:08:13;;;;;;;9.48;7.00;;;;;;;;;;5036052;28;20287;-55
2021/11/29 13:10:55;;;;;;;10.20;7.05;;;;;;;;;;5035633;28;20223;-55
2021/11/29 13:13:26;;;;;;;9.25;6.50;;;;;;;;;;5036012;28;20182;-55
2021/11/29 13:15:55;;;;;;;11.68;5.97;;;;;;;;;;5036434;28;20203;-55
2021/11/29 13:18:40;;;;;;;8.50;6.50;;;;;;;;;;5035827;28;20293;-54
2021/11/29 13:21:08;;;;;;;10.13;7.18;;;;;;;;;;5035396;28;20313;-56
2021/11/29 13:23:36;;;;;;;8.07;6.40;;;;;;;;;;5036557;28;20222;-54
2021/11/29 13:26:05;;;;;;;8.43;5.97;;;;;;;;;;5035648;28;20628;-55
2021/11/29 13:28:33;;;;;;;8.70;5.53;;;;;;;;;;5035433;28;20298;-54
2021/11/29 13:31:00;;;;;;;7.30;5.97;;;;;;;;;;5035375;28;20272;-56
2021/11/29 13:33:28;;;;;;;6.35;5.70;;;;;;;;;;5036047;28;20226;-54
2021/11/29 13:36:02;;;;;;;12.02;6.65;;;;;;;;;;5035561;28;20238;-55
2021/11/29 13:38:30;;;;;;;7.00;5.63;;;;;;;;;;5035353;28;20281;-55
2021/11/29 13:40:57;;;;;;;7.60;5.38;;;;;;;;;;5034974;28;20261;-54
2021/11/29 13:43:28;;;;;;;9.40;5.70;;;;;;;;;;5035471;28;20226;-55
2021/11/29 13:45:55;;;;;;;8.10;6.03;;;;;;;;;;5035080;28;20268;-55
2021/11/29 13:48:25;;;;;;;7.93;6.00;;;;;;;;;;5035432;28;20249;-55
2021/11/29 13:50:55;;;;;;;7.95;6.13;;;;;;;;;;5035037;28;20265;-55
2021/11/29 13:53:28;;;;;;;7.93;6.10;;;;;;;;;;5035228;28;20204;-56
2021/11/29 13:55:58;;;;;;;8.00;6.45;;;;;;;;;;5035081;28;20187;-56
2021/11/29 13:58:29;;;;;;;8.93;6.95;;;;;;;;;;5035384;28;20206;-57
2021/11/29 14:00:57;;;;;;;9.13;6.90;;;;;;;;;;5034964;28;20225;-57
2021/11/29 14:03:26;;;;;;;7.90;5.95;;;;;;;;;;5034968;28;20304;-57
2021/11/29 14:05:55;;;;;;;8.35;6.05;;;;;;;;;;5035345;28;20202;-58
2021/11/29 14:08:23;;;;;;;8.80;6.47;;;;;;;;;;5035014;28;20749;-57
2021/11/29 14:10:52;;;;;;;8.30;6.40;;;;;;;;;;5034484;28;20716;-57
2021/11/29 14:13:23;;;;;;;10.38;7.13;;;;;;;;;;5035166;28;20210;-54
2021/11/29 14:15:54;;;;;;;8.10;6.50;;;;;;;;;;5034713;28;20608;-56
2021/11/29 14:18:26;;;;;;;10.80;7.00;;;;;;;;;;5034935;28;20620;-55
2021/11/29 14:20:53;;;;;;;9.65;7.30;;;;;;;;;;5034463;28;20249;-56
2021/11/29 14:23:21;;;;;;;12.35;7.80;;;;;;;;;;5034421;28;20217;-56
2021/11/29 14:25:49;;;;;;;10.05;7.00;;;;;;;;;;5034681;28;20229;-56
2021/11/29 14:28:16;;;;;;;10.13;7.13;;;;;;;;;;5034447;28;20207;-56
2021/11/29 14:30:44;;;;;;;10.43;8.00;;;;;;;;;;5034295;28;20309;-55
2021/11/29 14:33:13;;;;;;;11.15;8.93;;;;;;;;;;5034393;28;20306;-55
2021/11/29 14:35:40;;;;;;;10.35;8.55;;;;;;;;;;5033970;28;20257;-55
2021/11/29 14:38:07;;;;;;;10.35;8.00;;;;;;;;;;5034269;28;20306;-55
2021/11/29 14:40:35;;;;;;;12.43;9.48;;;;;;;;;;5034849;28;20623;-55
2021/11/29 14:43:02;;;;;;;14.32;9.10;;;;;;;;;;5034375;28;20742;-55